createdAt,value
2023-05-10T00:00:17.672Z,61.80
2023-05-10T00:04:20.555Z,62.59
2023-05-10T00:08:23.267Z,62.95
2023-05-10T00:12:25.908Z,63.62
2023-05-10T00:16:29.993Z,63.65
2023-05-10T00:20:32.605Z,63.73
2023-05-10T00:24:35.248Z,64.61
2023-05-10T00:28:37.822Z,63.75
2023-05-10T00:32:41.763Z,63.79
2023-05-10T00:36:44.331Z,64.24
2023-05-10T00:40:47.077Z,64.41
2023-05-10T00:44:49.656Z,64.13
2023-05-10T00:48:54.212Z,63.84
2023-05-10T00:52:57.107Z,64.02
2023-05-10T00:56:59.784Z,63.96
2023-05-10T01:01:03.454Z,63.85
2023-05-10T01:05:08.662Z,64.34
2023-05-10T01:09:12.704Z,64.81
2023-05-10T01:13:20.593Z,65.08
2023-05-10T01:17:24.419Z,64.96
2023-05-10T01:21:38.596Z,65.52
2023-05-10T01:26:14.184Z,65.88
2023-05-10T01:30:54.616Z,65.57
2023-05-10T01:35:04.611Z,65.35
2023-05-10T01:39:13.765Z,65.61
2023-05-10T01:43:23.554Z,66.03
2023-05-10T01:47:33.558Z,67.12
2023-05-10T01:51:43.396Z,67.66
2023-05-10T01:55:49.453Z,67.80
2023-05-10T01:59:53.345Z,68.04
2023-05-10T02:03:57.651Z,67.78
2023-05-10T02:08:03.529Z,68.41
2023-05-10T02:12:07.634Z,69.46
2023-05-10T02:16:10.716Z,69.84
2023-05-10T02:20:14.250Z,70.96
2023-05-10T02:24:19.800Z,71.05
2023-05-10T02:28:23.760Z,70.95
2023-05-10T02:32:28.461Z,72.00
2023-05-10T02:36:32.456Z,73.12
2023-05-10T02:40:38.976Z,75.20
2023-05-10T02:44:43.738Z,76.23
2023-05-10T02:48:46.776Z,76.52
2023-05-10T02:52:53.775Z,77.51
2023-05-10T02:57:00.385Z,79.21
2023-05-10T03:01:03.214Z,80.77
2023-05-10T03:05:06.436Z,82.33
2023-05-10T03:09:10.402Z,83.50
2023-05-10T03:13:23.274Z,83.19
2023-05-10T03:17:38.302Z,83.34
2023-05-10T03:21:47.109Z,83.88
2023-05-10T03:25:51.250Z,85.55
2023-05-10T03:29:56.965Z,85.74
2023-05-10T03:33:59.591Z,86.88
2023-05-10T03:38:02.254Z,87.86
2023-05-10T03:42:05.132Z,87.53
2023-05-10T03:46:09.161Z,87.54
2023-05-10T03:50:12.333Z,88.44
2023-05-10T03:54:14.966Z,89.80
2023-05-10T03:58:17.629Z,88.05
2023-05-10T04:02:21.696Z,88.32
2023-05-10T04:06:24.337Z,86.26
2023-05-10T04:10:26.946Z,88.24
2023-05-10T04:14:29.573Z,89.69
2023-05-10T04:18:33.810Z,89.91
2023-05-10T04:22:36.451Z,89.86
2023-05-10T04:26:39.196Z,89.33
2023-05-10T04:30:42.421Z,88.96
2023-05-10T04:34:46.484Z,88.77
2023-05-10T04:38:49.088Z,88.93
2023-05-10T04:42:52.038Z,89.79
2023-05-10T04:46:54.659Z,90.53
2023-05-10T04:50:58.641Z,90.22
2023-05-10T04:55:01.247Z,91.05
2023-05-10T04:59:04.005Z,91.87
2023-05-10T05:03:07.197Z,91.48
2023-05-10T05:07:12.048Z,91.28
2023-05-10T05:11:14.654Z,91.98
2023-05-10T05:15:17.891Z,92.58
2023-05-10T05:19:20.535Z,93.04
2023-05-10T05:23:25.786Z,92.89
2023-05-10T05:27:29.031Z,92.91
2023-05-10T05:31:31.934Z,92.47
2023-05-10T05:35:35.164Z,92.81
2023-05-10T05:39:39.490Z,93.07
2023-05-10T05:43:42.072Z,93.12
2023-05-10T05:47:45.173Z,93.53
2023-05-10T05:51:49.030Z,93.50
2023-05-10T05:55:56.721Z,93.66
2023-05-10T05:59:59.362Z,93.74
2023-05-10T06:04:02.051Z,93.92
2023-05-10T06:08:05.012Z,94.43
2023-05-10T06:12:10.000Z,95.10
2023-05-10T06:16:12.629Z,95.06
2023-05-10T06:20:15.979Z,95.40
2023-05-10T06:24:18.583Z,95.31
2023-05-10T06:28:22.620Z,95.24
2023-05-10T06:32:25.401Z,94.13
2023-05-10T06:36:28.982Z,92.80
2023-05-10T06:40:34.002Z,92.66
2023-05-10T06:44:37.948Z,91.98
2023-05-10T06:48:40.575Z,92.01
2023-05-10T06:52:44.191Z,90.94
2023-05-10T06:56:46.854Z,90.69
2023-05-10T07:00:50.806Z,90.60
2023-05-10T07:04:54.126Z,90.23
2023-05-10T07:08:56.860Z,90.19
2023-05-10T07:12:59.530Z,89.75
2023-05-10T07:17:03.513Z,89.18
2023-05-10T07:21:06.182Z,89.97
2023-05-10T07:25:09.564Z,89.43
2023-05-10T07:29:12.193Z,89.40
2023-05-10T07:33:16.980Z,89.77
2023-05-10T07:37:19.961Z,89.70
2023-05-10T07:41:23.434Z,89.16
2023-05-10T07:45:26.058Z,89.46
2023-05-10T07:49:29.994Z,88.03
2023-05-10T07:53:32.646Z,86.25
2023-05-10T07:57:35.688Z,87.09
2023-05-10T08:01:38.764Z,86.41
2023-05-10T08:05:42.811Z,84.88
2023-05-10T08:09:45.488Z,84.13
2023-05-10T08:13:48.555Z,83.42
2023-05-10T08:17:51.197Z,81.32
2023-05-10T08:21:56.504Z,84.06
2023-05-10T08:25:59.924Z,83.30
2023-05-10T08:30:02.742Z,80.48
2023-05-10T08:34:05.363Z,82.14
2023-05-10T08:38:09.347Z,79.61
2023-05-10T08:42:12.189Z,79.35
2023-05-10T08:46:18.181Z,79.13
2023-05-10T08:50:22.941Z,80.27
2023-05-10T08:54:27.029Z,79.79
2023-05-10T08:58:30.908Z,78.88
2023-05-10T09:02:33.728Z,73.67
2023-05-10T09:06:40.632Z,75.85
2023-05-10T09:10:45.906Z,76.75
2023-05-10T09:14:48.754Z,76.84
2023-05-10T09:18:51.687Z,76.25
2023-05-10T09:22:54.820Z,76.26
2023-05-10T09:27:01.136Z,77.61
2023-05-10T09:31:03.804Z,75.19
2023-05-10T09:35:11.026Z,74.33
2023-05-10T09:39:15.095Z,74.71
2023-05-10T09:43:19.056Z,77.23
2023-05-10T09:47:21.706Z,76.84
2023-05-10T09:51:27.882Z,77.29
2023-05-10T09:55:41.505Z,75.95
2023-05-10T09:59:46.246Z,76.25
2023-05-10T10:03:48.921Z,75.94
2023-05-10T10:07:51.610Z,75.21
2023-05-10T10:11:54.438Z,73.89
2023-05-10T10:15:58.449Z,71.99
2023-05-10T10:20:01.560Z,68.42
2023-05-10T10:24:06.631Z,65.90
2023-05-10T10:28:19.130Z,64.50
2023-05-10T10:32:30.952Z,66.25
2023-05-10T10:36:34.870Z,63.17
2023-05-10T10:40:37.874Z,60.41
2023-05-10T10:44:42.880Z,62.42
2023-05-10T10:48:52.654Z,63.33
2023-05-10T10:52:55.660Z,65.01
2023-05-10T10:57:14.911Z,64.61
2023-05-10T11:01:18.832Z,66.06
2023-05-10T11:05:40.435Z,65.20
2023-05-10T11:09:43.099Z,65.29
2023-05-10T11:13:50.917Z,64.29
2023-05-10T11:17:56.010Z,64.59
2023-05-10T11:22:15.481Z,63.73
2023-05-10T11:26:18.851Z,63.83
2023-05-10T11:30:21.597Z,64.66
2023-05-10T11:34:28.855Z,62.85
2023-05-10T11:38:35.060Z,62.57
2023-05-10T11:42:39.170Z,62.89
2023-05-10T11:46:42.011Z,62.64
2023-05-10T11:50:48.085Z,63.88
2023-05-10T11:54:55.017Z,63.93
2023-05-10T11:58:59.000Z,62.69
2023-05-10T12:03:03.136Z,62.27
2023-05-10T12:07:06.610Z,61.19
2023-05-10T12:11:14.676Z,60.84
2023-05-10T12:15:21.851Z,62.65
2023-05-10T12:19:24.552Z,61.75
2023-05-10T12:23:28.468Z,61.09
2023-05-10T12:27:35.361Z,60.30
2023-05-10T12:31:51.476Z,58.74
2023-05-10T12:35:57.307Z,59.37
2023-05-10T12:39:59.914Z,56.24
2023-05-10T12:44:04.051Z,56.50
2023-05-10T12:48:07.853Z,58.01
2023-05-10T12:52:10.581Z,55.55
2023-05-10T12:56:13.256Z,58.10
2023-05-10T13:00:18.561Z,61.33
2023-05-10T13:04:21.247Z,64.99
2023-05-10T13:08:24.120Z,68.44
2023-05-10T13:12:26.757Z,71.09
2023-05-10T13:16:30.862Z,75.17
2023-05-10T13:20:33.697Z,77.78
2023-05-10T13:24:36.358Z,78.79
2023-05-10T13:28:39.810Z,80.29
2023-05-10T13:32:43.866Z,82.35
2023-05-10T13:36:46.503Z,83.45
2023-05-10T13:40:49.202Z,84.59
2023-05-10T13:44:52.362Z,85.43
2023-05-10T13:48:56.461Z,84.95
2023-05-10T13:52:59.114Z,85.30
2023-05-10T13:57:02.821Z,85.65
2023-05-10T14:01:05.855Z,85.46
2023-05-10T14:05:10.383Z,86.20
2023-05-10T14:09:13.043Z,86.22
2023-05-10T14:13:16.153Z,86.72
2023-05-10T14:17:18.882Z,86.50
2023-05-10T14:21:22.896Z,87.26
2023-05-10T14:25:25.792Z,87.73
2023-05-10T14:29:28.495Z,87.72
2023-05-10T14:33:31.132Z,88.52
2023-05-10T14:37:35.360Z,88.64
2023-05-10T14:41:38.146Z,87.53
2023-05-10T14:45:40.941Z,87.28
2023-05-10T14:49:43.601Z,86.82
2023-05-10T14:53:47.554Z,87.37
2023-05-10T14:57:51.299Z,86.98
2023-05-10T15:01:53.896Z,86.78
2023-05-10T15:05:58.624Z,85.77
2023-05-10T15:10:03.242Z,87.07
2023-05-10T15:14:05.925Z,85.82
2023-05-10T15:18:08.653Z,85.69
2023-05-10T15:22:11.370Z,85.84
2023-05-10T15:26:15.391Z,85.69
2023-05-10T15:30:18.045Z,84.76
2023-05-10T15:34:21.135Z,84.55
2023-05-10T15:38:23.775Z,84.62
2023-05-10T15:42:27.717Z,84.85
2023-05-10T15:46:30.919Z,85.81
2023-05-10T15:50:33.592Z,86.16
2023-05-10T15:54:36.371Z,86.80
2023-05-10T15:58:41.656Z,87.33
2023-05-10T16:02:44.398Z,88.06
2023-05-10T16:06:47.177Z,87.52
2023-05-10T16:10:50.299Z,88.08
2023-05-10T16:14:54.393Z,88.36
2023-05-10T16:18:57.821Z,88.72
2023-05-10T16:23:04.205Z,89.06
2023-05-10T16:27:07.020Z,89.66
2023-05-10T16:31:11.151Z,89.42
2023-05-10T16:35:13.798Z,88.10
2023-05-10T16:39:16.574Z,88.26
2023-05-10T16:43:19.306Z,89.00
2023-05-10T16:47:26.505Z,88.33
2023-05-10T16:51:29.333Z,88.85
2023-05-10T16:55:31.971Z,88.90
2023-05-10T16:59:34.640Z,88.82
2023-05-10T17:03:38.709Z,89.07
2023-05-10T17:07:41.405Z,89.91
2023-05-10T17:11:44.022Z,90.18
2023-05-10T17:15:47.900Z,90.47
2023-05-10T17:19:51.982Z,90.63
2023-05-10T17:23:54.633Z,90.79
2023-05-10T17:27:57.272Z,90.51
2023-05-10T17:32:00.092Z,91.87
2023-05-10T17:36:04.202Z,90.94
2023-05-10T17:40:10.077Z,92.13
2023-05-10T17:44:13.174Z,92.70
2023-05-10T17:48:15.929Z,93.82
2023-05-10T17:52:19.961Z,94.63
2023-05-10T17:56:23.097Z,94.85
2023-05-10T18:00:25.924Z,95.33
2023-05-10T18:04:28.707Z,94.38
2023-05-10T18:08:33.166Z,94.90
2023-05-10T18:12:36.054Z,95.24
2023-05-10T18:16:38.738Z,95.54
2023-05-10T18:20:41.499Z,96.21
2023-05-10T18:24:47.001Z,95.83
2023-05-10T18:28:49.743Z,95.36
2023-05-10T18:32:52.415Z,95.17
2023-05-10T18:36:55.256Z,94.85
2023-05-10T18:40:59.682Z,94.67
2023-05-10T18:45:02.691Z,95.18
2023-05-10T18:49:06.525Z,94.83
2023-05-10T18:53:09.288Z,95.13
2023-05-10T18:57:13.808Z,95.48
2023-05-10T19:01:16.815Z,95.86
2023-05-10T19:05:20.961Z,95.78
2023-05-10T19:09:23.764Z,96.38
2023-05-10T19:13:28.794Z,96.78
2023-05-10T19:17:31.640Z,97.22
2023-05-10T19:21:34.718Z,97.52
2023-05-10T19:25:38.683Z,97.92
2023-05-10T19:29:42.612Z,98.10
2023-05-10T19:33:45.340Z,97.83
2023-05-10T19:37:49.284Z,98.01
2023-05-10T19:41:51.974Z,98.39
2023-05-10T19:45:56.455Z,98.39
2023-05-10T19:49:59.578Z,98.54
2023-05-10T19:54:02.262Z,98.60
2023-05-10T19:58:05.608Z,98.67
2023-05-10T20:02:09.638Z,98.79
2023-05-10T20:06:12.281Z,98.98
2023-05-10T20:10:15.687Z,99.00
2023-05-10T20:14:19.640Z,99.14
2023-05-10T20:18:23.753Z,99.02
2023-05-10T20:22:26.968Z,99.29
2023-05-10T20:26:29.662Z,99.27
2023-05-10T20:30:32.363Z,99.22
2023-05-10T20:34:36.718Z,99.20
2023-05-10T20:38:39.403Z,99.31
2023-05-10T20:42:42.763Z,99.31
2023-05-10T20:46:45.603Z,99.54
2023-05-10T20:50:49.678Z,99.92
2023-05-10T20:54:52.729Z,99.76
2023-05-10T20:58:55.481Z,100.00
2023-05-10T21:02:58.468Z,99.86
2023-05-10T21:07:02.482Z,100.00
2023-05-10T21:11:05.739Z,100.00
2023-05-10T21:15:09.830Z,100.00
2023-05-10T21:19:12.549Z,100.00
2023-05-10T21:23:16.646Z,100.00
2023-05-10T21:27:19.290Z,100.00
2023-05-10T21:31:21.973Z,100.00
2023-05-10T21:35:25.262Z,100.00
2023-05-10T21:39:29.236Z,100.00
2023-05-10T21:43:31.877Z,100.00
2023-05-10T21:47:35.302Z,100.00
2023-05-10T21:51:38.023Z,100.00
2023-05-10T21:55:42.031Z,100.00
2023-05-10T21:59:44.714Z,100.00
2023-05-10T22:03:47.490Z,100.00
2023-05-10T22:07:50.147Z,100.00
2023-05-10T22:11:54.102Z,100.00
2023-05-10T22:15:56.825Z,100.00
2023-05-10T22:19:59.467Z,100.00
2023-05-10T22:24:02.075Z,100.00
2023-05-10T22:28:07.419Z,100.00
2023-05-10T22:32:10.048Z,100.00
2023-05-10T22:36:12.722Z,100.00
2023-05-10T22:40:15.503Z,100.00
2023-05-10T22:44:19.550Z,100.00
2023-05-10T22:48:22.262Z,100.00
2023-05-10T22:52:24.884Z,100.00
2023-05-10T22:56:28.341Z,99.97
2023-05-10T23:00:32.753Z,100.00
2023-05-10T23:04:35.461Z,99.98
2023-05-10T23:08:38.102Z,99.87
2023-05-10T23:12:40.803Z,99.03
2023-05-10T23:16:44.884Z,99.33
2023-05-10T23:20:47.592Z,99.26
2023-05-10T23:24:50.232Z,99.32
2023-05-10T23:28:52.832Z,99.29
2023-05-10T23:32:56.895Z,99.80
2023-05-10T23:36:59.556Z,99.75
2023-05-10T23:41:02.191Z,99.69
2023-05-10T23:45:05.622Z,100.00
2023-05-10T23:49:09.628Z,100.00
2023-05-10T23:53:12.335Z,100.00
2023-05-10T23:57:14.988Z,100.00
